Bayou la Batre, Alabama
Current Conditions -  °F | °C
As of 8:53 AM on Friday 31 Oct 2014 (Local Time) from KBFM Reporting Station
Clear Clear  
Wind Chill: 59°   Ceiling: Unl
Heat Index: 59°   Visibility: 10mi
Dew Point: 46°   Wind: 0mph
Humidity: 62%   Direction: NA
Pressure: 30.05"   Gusts: NA
Location:  30.42°N, 88.22°W
Report Text: KBFM 311353Z 00000KT 10SM CLR 15/08 A3005 RMK AO2 SLP174 T01500078
Loading
Personal Weather Stations






























Interactive Weather Map
Tropical Storm Tracking
New forecast layout! Learn more

10-Day Weather Forecast

Advertisements
Track Severe Weather on mobile